Time;durP1;ratioP1;P1;durP2;ratioP2;P2;SDS_P1;SDS_P2;PMS_P1;PMS_P2;Temp;Humidity;BMP_temperature;BMP_pressure;BME280_temperature;BME280_humidity;BME280_pressure;Samples;Min_cycle;Max_cycle;Signal;HPM_P1;HPM_P2
2022/07/29 00:00:01;;;;;;;4.05;1.92;;;;;;;;;;4984574;28;20501;-79
2022/07/29 00:02:27;;;;;;;5.30;1.65;;;;;;;;;;4988180;28;20081;-79
2022/07/29 00:04:52;;;;;;;4.78;1.95;;;;;;;;;;4999963;28;20038;-79
2022/07/29 00:07:18;;;;;;;5.28;2.08;;;;;;;;;;4966730;28;20375;-79
2022/07/29 00:09:43;;;;;;;6.65;2.28;;;;;;;;;;4994938;28;20626;-80
2022/07/29 00:12:09;;;;;;;4.55;2.00;;;;;;;;;;4981462;28;20065;-79
2022/07/29 00:14:34;;;;;;;6.80;1.90;;;;;;;;;;4979443;28;20042;-79
2022/07/29 00:16:59;;;;;;;5.20;1.92;;;;;;;;;;4993414;28;20717;-79
2022/07/29 00:19:25;;;;;;;4.68;1.70;;;;;;;;;;4995132;28;20100;-79
2022/07/29 00:21:50;;;;;;;4.50;2.05;;;;;;;;;;4991891;28;20034;-79
2022/07/29 00:24:15;;;;;;;5.30;2.13;;;;;;;;;;4992259;28;20113;-79
2022/07/29 00:26:41;;;;;;;5.18;2.03;;;;;;;;;;4984912;28;20088;-79
2022/07/29 00:29:06;;;;;;;10.43;2.80;;;;;;;;;;4992870;28;20047;-79
2022/07/29 00:31:32;;;;;;;5.45;1.85;;;;;;;;;;4979367;28;20049;-80
2022/07/29 00:33:57;;;;;;;5.72;2.13;;;;;;;;;;4974951;28;20057;-79
2022/07/29 00:36:22;;;;;;;5.57;2.08;;;;;;;;;;4995511;28;20037;-78
2022/07/29 00:38:49;;;;;;;5.45;2.13;;;;;;;;;;4993309;28;20058;-80
2022/07/29 00:41:15;;;;;;;4.65;1.98;;;;;;;;;;4994874;28;20045;-79
2022/07/29 00:43:41;;;;;;;5.50;2.15;;;;;;;;;;4988437;28;20034;-79
2022/07/29 00:46:06;;;;;;;4.90;2.22;;;;;;;;;;4981722;28;20046;-80
2022/07/29 00:48:31;;;;;;;5.35;1.92;;;;;;;;;;4997193;28;20042;-80
2022/07/29 00:50:57;;;;;;;5.65;2.00;;;;;;;;;;4996678;28;20488;-79
2022/07/29 00:53:24;;;;;;;9.18;2.20;;;;;;;;;;4981981;28;20037;-80
2022/07/29 00:55:50;;;;;;;5.60;2.07;;;;;;;;;;5003257;28;20034;-80
2022/07/29 00:58:15;;;;;;;6.75;2.08;;;;;;;;;;4994273;28;20792;-80
2022/07/29 01:00:40;;;;;;;5.35;2.45;;;;;;;;;;4994875;28;20100;-79
2022/07/29 01:03:07;;;;;;;6.95;2.20;;;;;;;;;;4982318;28;20085;-79
2022/07/29 01:05:32;;;;;;;4.60;1.73;;;;;;;;;;4998124;28;20628;-80
2022/07/29 01:08:01;;;;;;;3.97;1.90;;;;;;;;;;4995430;28;20130;-79
2022/07/29 01:10:27;;;;;;;5.40;2.25;;;;;;;;;;4996885;28;20422;-80
2022/07/29 01:12:55;;;;;;;4.60;1.90;;;;;;;;;;4988068;28;20065;-80
2022/07/29 01:15:20;;;;;;;5.35;2.42;;;;;;;;;;4995457;28;20041;-79
2022/07/29 01:18:02;;;;;;;5.43;2.17;;;;;;;;;;4982105;28;20494;-80
2022/07/29 01:21:05;;;;;;;5.53;2.42;;;;;;;;;;4986997;28;20068;-79
2022/07/29 01:23:48;;;;;;;5.05;2.10;;;;;;;;;;4993877;28;20052;-78
2022/07/29 01:26:29;;;;;;;4.97;2.08;;;;;;;;;;4998111;28;20397;-79
2022/07/29 01:29:12;;;;;;;5.63;2.40;;;;;;;;;;4994155;28;20044;-79
2022/07/29 01:32:02;;;;;;;4.43;2.22;;;;;;;;;;4996214;28;20042;-79
2022/07/29 01:34:38;;;;;;;5.82;2.05;;;;;;;;;;4992725;28;20565;-79
2022/07/29 01:37:06;;;;;;;4.10;1.75;;;;;;;;;;4988176;28;20058;-79
2022/07/29 01:39:36;;;;;;;5.07;2.00;;;;;;;;;;5004302;28;20054;-80
2022/07/29 01:42:07;;;;;;;6.13;2.30;;;;;;;;;;4982557;28;20136;-79
2022/07/29 01:44:49;;;;;;;4.85;2.20;;;;;;;;;;4994429;28;20439;-79
2022/07/29 01:47:17;;;;;;;4.13;1.90;;;;;;;;;;4979162;28;20122;-80
2022/07/29 01:49:47;;;;;;;7.63;2.28;;;;;;;;;;4963165;28;20074;-80
2022/07/29 01:52:20;;;;;;;6.32;2.40;;;;;;;;;;5003101;28;20113;-80
2022/07/29 01:54:52;;;;;;;5.32;1.98;;;;;;;;;;4988107;28;20542;-80
2022/07/29 01:57:20;;;;;;;5.28;2.30;;;;;;;;;;4987485;28;20543;-80
2022/07/29 01:59:47;;;;;;;5.95;2.00;;;;;;;;;;4994158;28;20125;-80
2022/07/29 02:02:14;;;;;;;6.50;1.90;;;;;;;;;;4979660;28;20133;-79
2022/07/29 02:04:40;;;;;;;4.68;1.83;;;;;;;;;;4982702;28;20048;-79
2022/07/29 02:07:07;;;;;;;4.88;2.20;;;;;;;;;;4990278;28;20427;-79
2022/07/29 02:09:34;;;;;;;5.90;2.20;;;;;;;;;;4973019;28;20500;-80
2022/07/29 02:12:01;;;;;;;;;;;;;;;;;;4989105;28;20039;-79
2022/07/29 02:14:29;;;;;;;4.90;2.03;;;;;;;;;;4983797;28;19913;-79
2022/07/29 02:16:55;;;;;;;3.75;1.73;;;;;;;;;;4990600;28;20085;-79
2022/07/29 02:19:22;;;;;;;4.15;1.90;;;;;;;;;;4960648;28;20038;-79
2022/07/29 02:21:48;;;;;;;6.43;2.03;;;;;;;;;;4988970;28;20521;-80
2022/07/29 02:24:14;;;;;;;5.50;2.10;;;;;;;;;;4994643;28;20046;-78
2022/07/29 02:26:41;;;;;;;4.32;2.30;;;;;;;;;;5008604;28;20089;-78
2022/07/29 02:29:08;;;;;;;5.40;2.13;;;;;;;;;;4991280;28;20038;-80
2022/07/29 02:31:34;;;;;;;5.82;2.00;;;;;;;;;;4975739;28;20278;-79
2022/07/29 02:34:01;;;;;;;5.45;2.00;;;;;;;;;;4989727;28;20117;-80
2022/07/29 02:36:27;;;;;;;4.45;2.10;;;;;;;;;;5006552;28;20522;-79
2022/07/29 02:38:57;;;;;;;4.97;2.10;;;;;;;;;;5004761;28;20038;-80
2022/07/29 02:41:33;;;;;;;5.15;2.10;;;;;;;;;;4989335;28;20529;-79
2022/07/29 02:44:04;;;;;;;6.53;2.40;;;;;;;;;;4974764;28;20512;-79
2022/07/29 02:46:32;;;;;;;4.25;2.30;;;;;;;;;;4969325;28;20102;-80
2022/07/29 02:49:04;;;;;;;4.25;2.00;;;;;;;;;;4988706;28;20434;-79
2022/07/29 02:51:45;;;;;;;6.78;2.03;;;;;;;;;;5004941;28;20083;-80
2022/07/29 02:54:20;;;;;;;5.32;2.00;;;;;;;;;;4989074;28;20081;-80
2022/07/29 02:56:46;;;;;;;4.18;1.75;;;;;;;;;;5011163;28;20030;-79
2022/07/29 02:59:13;;;;;;;8.43;2.10;;;;;;;;;;4994909;28;20427;-79
2022/07/29 03:01:40;;;;;;;4.63;2.07;;;;;;;;;;4981340;28;20073;-79
2022/07/29 03:04:06;;;;;;;5.38;2.10;;;;;;;;;;4978921;28;20061;-80
2022/07/29 03:06:34;;;;;;;5.25;2.10;;;;;;;;;;4979506;28;20081;-79
2022/07/29 03:08:59;;;;;;;5.65;1.67;;;;;;;;;;4978275;28;20037;-80
2022/07/29 03:11:25;;;;;;;3.90;1.70;;;;;;;;;;4986076;28;20029;-79
2022/07/29 03:13:51;;;;;;;5.32;1.83;;;;;;;;;;4985171;28;20038;-79
2022/07/29 03:16:18;;;;;;;6.97;2.20;;;;;;;;;;4977638;28;20038;-78
2022/07/29 03:18:43;;;;;;;6.25;2.03;;;;;;;;;;4992295;28;20093;-79
2022/07/29 03:21:09;;;;;;;4.85;1.70;;;;;;;;;;4985494;28;20037;-80
2022/07/29 03:23:34;;;;;;;5.95;1.75;;;;;;;;;;4996067;28;20038;-79
2022/07/29 03:25:59;;;;;;;5.20;2.17;;;;;;;;;;5002216;28;20057;-79
2022/07/29 03:28:27;;;;;;;4.38;2.00;;;;;;;;;;4991629;28;20046;-79
2022/07/29 03:30:52;;;;;;;6.68;2.10;;;;;;;;;;4993555;28;20034;-79
2022/07/29 03:33:17;;;;;;;5.47;2.03;;;;;;;;;;4991791;28;20065;-79
2022/07/29 03:35:43;;;;;;;9.88;2.30;;;;;;;;;;4978953;28;20852;-79
2022/07/29 03:38:08;;;;;;;7.85;2.30;;;;;;;;;;4979533;28;20034;-79
2022/07/29 03:41:03;;;;;;;10.20;2.00;;;;;;;;;;4992799;28;20615;-79
2022/07/29 03:43:30;;;;;;;4.43;1.77;;;;;;;;;;5000200;28;20405;-79
2022/07/29 03:45:57;;;;;;;5.25;2.10;;;;;;;;;;4980568;28;20038;-78
2022/07/29 03:48:24;;;;;;;6.45;2.50;;;;;;;;;;4985405;28;20459;-79
2022/07/29 03:50:50;;;;;;;5.57;1.88;;;;;;;;;;4986503;28;20034;-79
2022/07/29 03:53:15;;;;;;;4.93;2.30;;;;;;;;;;4996369;28;20030;-79
2022/07/29 03:55:43;;;;;;;4.68;1.80;;;;;;;;;;4985300;28;20113;-79
2022/07/29 03:58:10;;;;;;;4.95;2.03;;;;;;;;;;4976585;28;20493;-79
2022/07/29 04:00:37;;;;;;;4.97;1.92;;;;;;;;;;4992502;28;20035;-78
2022/07/29 04:03:05;;;;;;;5.45;2.25;;;;;;;;;;4982362;28;20050;-79
2022/07/29 04:05:30;;;;;;;5.05;2.08;;;;;;;;;;4978765;28;20482;-79
2022/07/29 04:07:56;;;;;;;4.90;2.00;;;;;;;;;;4995189;28;20037;-79
2022/07/29 04:10:22;;;;;;;4.20;1.85;;;;;;;;;;4994376;28;20037;-79
2022/07/29 04:12:48;;;;;;;5.30;2.15;;;;;;;;;;4976445;28;20037;-79
2022/07/29 04:15:14;;;;;;;5.28;2.20;;;;;;;;;;4992562;28;20032;-79
2022/07/29 04:17:39;;;;;;;8.25;2.40;;;;;;;;;;4984377;28;20038;-79
2022/07/29 04:20:05;;;;;;;7.55;1.90;;;;;;;;;;4986000;28;20037;-79
2022/07/29 04:22:30;;;;;;;5.05;2.08;;;;;;;;;;4994897;28;20037;-79
2022/07/29 04:24:55;;;;;;;5.78;1.92;;;;;;;;;;4992731;28;20035;-78
2022/07/29 04:27:21;;;;;;;5.15;2.30;;;;;;;;;;4994605;28;20159;-79
2022/07/29 04:29:46;;;;;;;5.45;2.10;;;;;;;;;;4994796;28;20695;-78
2022/07/29 04:32:12;;;;;;;5.35;1.95;;;;;;;;;;5000071;28;20939;-79
2022/07/29 04:34:37;;;;;;;5.95;2.10;;;;;;;;;;4981075;28;20038;-78
2022/07/29 04:37:02;;;;;;;4.72;2.00;;;;;;;;;;4978048;28;20050;-79
2022/07/29 04:39:28;;;;;;;4.88;2.28;;;;;;;;;;4981410;28;20027;-79
2022/07/29 04:41:53;;;;;;;5.03;1.83;;;;;;;;;;4981875;28;20042;-79
2022/07/29 04:44:18;;;;;;;4.60;1.88;;;;;;;;;;4986523;28;20084;-79
2022/07/29 04:46:44;;;;;;;5.20;2.03;;;;;;;;;;4982597;28;20030;-79
2022/07/29 04:49:09;;;;;;;4.75;1.92;;;;;;;;;;4996870;28;20060;-79
2022/07/29 04:51:35;;;;;;;4.68;1.95;;;;;;;;;;4995578;28;20065;-79
2022/07/29 04:54:00;;;;;;;5.32;2.00;;;;;;;;;;4980822;28;20034;-79
2022/07/29 04:56:26;;;;;;;5.13;1.88;;;;;;;;;;4995875;28;20038;-79
2022/07/29 04:58:51;;;;;;;4.65;2.17;;;;;;;;;;4987710;28;20042;-79
2022/07/29 05:01:16;;;;;;;7.50;3.47;;;;;;;;;;4994661;28;20505;-79
2022/07/29 05:03:42;;;;;;;5.85;2.05;;;;;;;;;;4980767;28;20394;-79
2022/07/29 05:06:07;;;;;;;4.70;2.00;;;;;;;;;;4995011;28;20125;-79
2022/07/29 05:08:32;;;;;;;6.00;1.92;;;;;;;;;;4995950;28;20034;-79
2022/07/29 05:10:58;;;;;;;5.13;2.10;;;;;;;;;;4994782;28;20090;-80
2022/07/29 05:13:23;;;;;;;6.13;2.63;;;;;;;;;;4995114;28;20060;-79
2022/07/29 05:15:49;;;;;;;5.57;2.30;;;;;;;;;;4994611;28;20355;-79
2022/07/29 05:18:14;;;;;;;6.30;2.13;;;;;;;;;;4984363;28;20489;-79
2022/07/29 05:20:40;;;;;;;6.55;2.70;;;;;;;;;;4994784;28;20038;-79
2022/07/29 05:23:05;;;;;;;4.72;2.05;;;;;;;;;;4989637;28;20042;-79
2022/07/29 05:25:31;;;;;;;11.15;3.83;;;;;;;;;;4965574;28;20472;-79
2022/07/29 05:27:59;;;;;;;4.03;2.00;;;;;;;;;;4987032;28;20045;-79
2022/07/29 05:30:24;;;;;;;5.78;1.95;;;;;;;;;;4996580;28;20125;-78
2022/07/29 05:32:50;;;;;;;5.15;2.60;;;;;;;;;;4980397;28;20129;-79
2022/07/29 05:35:15;;;;;;;10.98;5.05;;;;;;;;;;4972911;28;20039;-78
2022/07/29 05:37:41;;;;;;;4.88;1.95;;;;;;;;;;4993738;28;20034;-79
2022/07/29 05:40:09;;;;;;;4.47;2.10;;;;;;;;;;4995158;28;20138;-79
2022/07/29 05:42:34;;;;;;;5.20;2.30;;;;;;;;;;4993444;28;20046;-79
2022/07/29 05:45:03;;;;;;;4.93;2.05;;;;;;;;;;4997185;28;20432;-79
2022/07/29 05:47:28;;;;;;;6.10;2.13;;;;;;;;;;4982657;28;20034;-79
2022/07/29 05:49:54;;;;;;;6.25;2.03;;;;;;;;;;4982819;28;20026;-79
2022/07/29 05:52:19;;;;;;;4.95;1.70;;;;;;;;;;4988786;28;20039;-79
2022/07/29 05:54:45;;;;;;;4.13;1.92;;;;;;;;;;4995990;28;20030;-79
2022/07/29 05:57:17;;;;;;;7.38;2.03;;;;;;;;;;4987307;28;20049;-79
2022/07/29 05:59:42;;;;;;;4.03;2.00;;;;;;;;;;4996344;28;20497;-79
2022/07/29 06:02:07;;;;;;;3.60;1.75;;;;;;;;;;4979303;28;20053;-79
2022/07/29 06:04:33;;;;;;;9.45;2.10;;;;;;;;;;4994266;28;20096;-79
2022/07/29 06:06:58;;;;;;;5.47;1.63;;;;;;;;;;4995209;28;20038;-79
2022/07/29 06:09:24;;;;;;;4.38;2.00;;;;;;;;;;4978579;28;20088;-79
2022/07/29 06:11:49;;;;;;;8.20;2.45;;;;;;;;;;4986259;28;20954;-79
2022/07/29 06:14:14;;;;;;;5.28;1.98;;;;;;;;;;4981185;28;20924;-79
2022/07/29 06:16:40;;;;;;;5.65;1.75;;;;;;;;;;4978185;28;20066;-79
2022/07/29 06:19:05;;;;;;;4.68;1.75;;;;;;;;;;4994029;28;20097;-78
2022/07/29 06:21:30;;;;;;;4.40;1.95;;;;;;;;;;4994050;28;20461;-78
2022/07/29 06:23:58;;;;;;;10.88;2.50;;;;;;;;;;4978870;28;20038;-79
2022/07/29 06:26:23;;;;;;;5.18;1.80;;;;;;;;;;4977767;28;20117;-79
2022/07/29 06:28:49;;;;;;;5.32;1.90;;;;;;;;;;4995530;28;20145;-79
2022/07/29 06:31:14;;;;;;;5.82;1.98;;;;;;;;;;5009011;28;20054;-79
2022/07/29 06:33:39;;;;;;;4.65;1.80;;;;;;;;;;5006540;28;20030;-80
2022/07/29 06:36:05;;;;;;;7.03;2.05;;;;;;;;;;4973688;28;20042;-79
2022/07/29 06:38:31;;;;;;;4.78;2.30;;;;;;;;;;4974384;28;20065;-79
2022/07/29 06:41:00;;;;;;;3.25;1.60;;;;;;;;;;5005758;28;20401;-79
2022/07/29 06:43:31;;;;;;;9.00;2.00;;;;;;;;;;4976849;28;20045;-79
2022/07/29 06:45:59;;;;;;;5.15;1.65;;;;;;;;;;5006740;28;20070;-79
2022/07/29 06:48:24;;;;;;;3.38;1.58;;;;;;;;;;4994163;28;20555;-79
2022/07/29 06:50:49;;;;;;;5.60;1.48;;;;;;;;;;4974009;28;20042;-79
2022/07/29 06:53:15;;;;;;;4.72;1.80;;;;;;;;;;4989628;28;20041;-79
2022/07/29 06:55:40;;;;;;;4.60;1.95;;;;;;;;;;4982568;28;20469;-79
2022/07/29 06:58:07;;;;;;;4.55;1.60;;;;;;;;;;4972647;28;20050;-79
2022/07/29 07:00:32;;;;;;;7.20;2.40;;;;;;;;;;5005626;28;20046;-79
2022/07/29 07:02:58;;;;;;;3.35;1.48;;;;;;;;;;4973024;28;20355;-79
2022/07/29 07:05:23;;;;;;;6.13;1.70;;;;;;;;;;4993753;28;20038;-79
2022/07/29 07:07:48;;;;;;;4.35;1.70;;;;;;;;;;5001934;28;20041;-79
2022/07/29 07:10:14;;;;;;;6.03;1.60;;;;;;;;;;4982579;28;20037;-78
2022/07/29 07:12:40;;;;;;;5.30;1.77;;;;;;;;;;4981166;28;20041;-79
2022/07/29 07:15:05;;;;;;;8.57;1.98;;;;;;;;;;4994512;28;20041;-79
2022/07/29 07:17:31;;;;;;;4.80;1.60;;;;;;;;;;4985627;28;20566;-79
2022/07/29 07:19:56;;;;;;;6.13;1.52;;;;;;;;;;4986156;28;20033;-79
2022/07/29 07:22:22;;;;;;;4.88;1.70;;;;;;;;;;4979108;28;20034;-78
2022/07/29 07:24:47;;;;;;;5.70;1.75;;;;;;;;;;4994311;28;20050;-79
2022/07/29 07:27:12;;;;;;;5.18;1.55;;;;;;;;;;4993252;28;20034;-78
2022/07/29 07:29:40;;;;;;;5.72;1.70;;;;;;;;;;4993122;28;20039;-79
2022/07/29 07:32:06;;;;;;;6.18;1.65;;;;;;;;;;4995264;28;20132;-79
2022/07/29 07:34:32;;;;;;;3.85;1.30;;;;;;;;;;4993445;28;20118;-79
2022/07/29 07:36:57;;;;;;;6.90;1.58;;;;;;;;;;4980242;28;20099;-79
2022/07/29 07:39:22;;;;;;;5.70;1.50;;;;;;;;;;4996581;28;20500;-78
2022/07/29 07:41:48;;;;;;;5.78;1.48;;;;;;;;;;4978816;28;20062;-79
2022/07/29 07:44:13;;;;;;;3.53;1.50;;;;;;;;;;4973802;28;20803;-79
2022/07/29 07:46:38;;;;;;;5.82;1.40;;;;;;;;;;4994187;28;20038;-79
2022/07/29 07:49:04;;;;;;;4.25;1.63;;;;;;;;;;4981257;28;20121;-78
2022/07/29 07:51:29;;;;;;;3.78;1.60;;;;;;;;;;4994752;28;20030;-79
2022/07/29 07:53:54;;;;;;;4.35;1.30;;;;;;;;;;4995718;28;20026;-79
2022/07/29 07:56:20;;;;;;;4.03;1.35;;;;;;;;;;4998099;28;20097;-79
2022/07/29 07:58:45;;;;;;;5.10;1.30;;;;;;;;;;4983800;28;20034;-79
2022/07/29 08:01:10;;;;;;;6.95;1.50;;;;;;;;;;4991223;28;20109;-79
2022/07/29 08:03:36;;;;;;;4.00;1.20;;;;;;;;;;4999688;28;20037;-79
2022/07/29 08:06:03;;;;;;;3.08;1.20;;;;;;;;;;4999832;28;20579;-79
2022/07/29 08:08:29;;;;;;;4.15;1.30;;;;;;;;;;4989253;28;20544;-79
2022/07/29 08:10:56;;;;;;;6.65;1.30;;;;;;;;;;4997053;28;20027;-79
2022/07/29 08:13:25;;;;;;;2.45;1.10;;;;;;;;;;4997265;28;20033;-79
2022/07/29 08:16:01;;;;;;;3.22;1.20;;;;;;;;;;4984267;28;20034;-79
2022/07/29 08:18:30;;;;;;;6.43;1.20;;;;;;;;;;4984971;28;20446;-79
2022/07/29 08:20:56;;;;;;;4.90;1.13;;;;;;;;;;4982318;28;20034;-79
2022/07/29 08:23:22;;;;;;;4.18;1.08;;;;;;;;;;4962081;28;20156;-79
2022/07/29 08:25:49;;;;;;;3.42;1.05;;;;;;;;;;4968355;28;20400;-79
2022/07/29 08:28:14;;;;;;;5.60;1.08;;;;;;;;;;4983640;28;20038;-79
2022/07/29 08:30:40;;;;;;;4.57;1.38;;;;;;;;;;4994317;28;20041;-79
2022/07/29 08:33:08;;;;;;;2.83;1.10;;;;;;;;;;4994213;28;20054;-79
2022/07/29 08:35:33;;;;;;;4.00;1.13;;;;;;;;;;4999054;28;20035;-79
2022/07/29 08:37:59;;;;;;;2.75;1.10;;;;;;;;;;4999370;28;20088;-78
2022/07/29 08:40:24;;;;;;;2.80;1.15;;;;;;;;;;4981127;28;20030;-78
2022/07/29 08:42:50;;;;;;;4.07;1.33;;;;;;;;;;4988479;28;20038;-82
2022/07/29 08:45:16;;;;;;;2.70;1.10;;;;;;;;;;4997582;28;20061;-85
2022/07/29 08:47:44;;;;;;;3.67;1.15;;;;;;;;;;4981274;28;20486;-85
2022/07/29 08:50:10;;;;;;;5.10;1.27;;;;;;;;;;4988970;28;20117;-85
2022/07/29 08:52:39;;;;;;;5.40;1.23;;;;;;;;;;4985829;28;20573;-84
2022/07/29 08:55:07;;;;;;;4.22;1.40;;;;;;;;;;4986812;28;20042;-86
2022/07/29 08:57:33;;;;;;;3.90;1.60;;;;;;;;;;4988443;28;20037;-85
2022/07/29 09:00:00;;;;;;;3.80;1.40;;;;;;;;;;4994862;28;20077;-86
2022/07/29 09:02:28;;;;;;;4.15;1.38;;;;;;;;;;4975617;28;20444;-85
2022/07/29 09:04:54;;;;;;;4.20;1.10;;;;;;;;;;4986197;28;20030;-85
2022/07/29 09:07:19;;;;;;;3.05;1.13;;;;;;;;;;4962964;28;20620;-86
2022/07/29 09:09:45;;;;;;;4.60;1.10;;;;;;;;;;4978651;28;20092;-85
2022/07/29 09:12:11;;;;;;;3.30;0.90;;;;;;;;;;4977370;28;20109;-85
2022/07/29 09:14:38;;;;;;;2.97;1.10;;;;;;;;;;4993031;28;20066;-86
2022/07/29 09:17:03;;;;;;;5.53;1.40;;;;;;;;;;4978632;28;20038;-85
2022/07/29 09:19:34;;;;;;;3.72;0.93;;;;;;;;;;4979128;28;20039;-86
2022/07/29 09:22:01;;;;;;;3.13;1.00;;;;;;;;;;4994049;28;20035;-87
2022/07/29 09:24:47;;;;;;;4.60;1.30;;;;;;;;;;4976579;28;20523;-86
2022/07/29 09:27:21;;;;;;;4.78;0.90;;;;;;;;;;4977004;28;20125;-86
2022/07/29 09:29:46;;;;;;;3.63;1.00;;;;;;;;;;4982358;28;20041;-84
2022/07/29 09:32:12;;;;;;;2.80;0.90;;;;;;;;;;4980912;28;20034;-85
2022/07/29 09:34:38;;;;;;;2.15;0.80;;;;;;;;;;4980708;28;20157;-85
2022/07/29 09:37:04;;;;;;;4.38;1.20;;;;;;;;;;4985086;28;20092;-83
2022/07/29 09:39:45;;;;;;;3.55;1.65;;;;;;;;;;4989469;28;20041;-79
2022/07/29 09:42:11;;;;;;;5.05;1.20;;;;;;;;;;4972618;28;20512;-80
2022/07/29 09:44:50;;;;;;;3.58;1.00;;;;;;;;;;4981907;28;20477;-80
2022/07/29 09:47:17;;;;;;;2.80;0.88;;;;;;;;;;4993347;28;20113;-79
2022/07/29 09:49:55;;;;;;;;;;;;;;;;;;4982792;28;20646;-80
2022/07/29 09:52:21;;;;;;;2.58;0.93;;;;;;;;;;5011073;28;20420;-79
2022/07/29 09:54:46;;;;;;;2.72;1.10;;;;;;;;;;4995430;28;20494;-79
2022/07/29 09:57:26;;;;;;;4.30;1.13;;;;;;;;;;4984328;28;20064;-79
2022/07/29 10:00:00;;;;;;;2.92;0.90;;;;;;;;;;4987958;28;20041;-80
2022/07/29 10:02:30;;;;;;;3.60;0.90;;;;;;;;;;4998209;28;20557;-79
2022/07/29 10:04:56;;;;;;;3.60;0.93;;;;;;;;;;4998929;28;20349;-79
2022/07/29 10:07:21;;;;;;;3.33;1.00;;;;;;;;;;4987508;28;20117;-79
2022/07/29 10:09:55;;;;;;;2.60;1.00;;;;;;;;;;4998285;28;20113;-79
2022/07/29 10:12:21;;;;;;;3.58;0.80;;;;;;;;;;5004101;28;20037;-79
2022/07/29 10:14:47;;;;;;;2.75;0.90;;;;;;;;;;4980816;28;20037;-79
2022/07/29 10:17:12;;;;;;;3.45;0.98;;;;;;;;;;4995371;28;20500;-80
2022/07/29 10:19:38;;;;;;;2.45;1.02;;;;;;;;;;4978234;28;20026;-79
2022/07/29 10:22:10;;;;;;;2.25;0.80;;;;;;;;;;4980017;28;20462;-80
2022/07/29 10:24:37;;;;;;;3.78;1.02;;;;;;;;;;4961345;28;20041;-79
2022/07/29 10:27:05;;;;;;;2.55;0.77;;;;;;;;;;4975986;28;20030;-79
2022/07/29 10:29:31;;;;;;;2.92;0.77;;;;;;;;;;4985788;28;20581;-79
2022/07/29 10:32:17;;;;;;;3.63;0.90;;;;;;;;;;4994977;28;20138;-79
2022/07/29 10:34:46;;;;;;;3.60;1.08;;;;;;;;;;4995905;28;20712;-79
2022/07/29 10:37:29;;;;;;;4.70;0.90;;;;;;;;;;4991664;28;20054;-79
2022/07/29 10:41:26;;;;;;;2.13;0.93;;;;;;;;;;5006708;28;20505;-80
2022/07/29 10:42:52;;;;;;;3.47;0.80;;;;;;;;;;5005434;28;20046;-80
2022/07/29 10:45:18;;;;;;;2.97;1.00;;;;;;;;;;4985066;28;20056;-81
2022/07/29 10:47:44;;;;;;;3.55;0.88;;;;;;;;;;5002010;28;20113;-79
2022/07/29 10:50:10;;;;;;;4.00;0.90;;;;;;;;;;4982068;28;20550;-83
2022/07/29 10:52:52;;;;;;;2.83;0.88;;;;;;;;;;4981638;28;20030;-83
2022/07/29 10:55:36;;;;;;;2.50;0.90;;;;;;;;;;5003606;28;20034;-79
2022/07/29 10:58:30;;;;;;;3.38;0.80;;;;;;;;;;4995211;28;20511;-81
2022/07/29 11:00:56;;;;;;;2.80;1.20;;;;;;;;;;4986889;28;20505;-82
2022/07/29 11:03:46;;;;;;;2.88;1.00;;;;;;;;;;4981158;28;20049;-85
2022/07/29 11:06:13;;;;;;;2.72;1.10;;;;;;;;;;4986028;28;20038;-82
2022/07/29 11:08:38;;;;;;;2.65;0.88;;;;;;;;;;4960200;28;20043;-85
2022/07/29 11:11:18;;;;;;;2.60;0.93;;;;;;;;;;4974536;28;20029;-81
2022/07/29 11:13:46;;;;;;;4.40;0.90;;;;;;;;;;4976477;28;20101;-82
2022/07/29 11:16:11;;;;;;;4.40;1.00;;;;;;;;;;4974720;28;20034;-84
2022/07/29 11:19:11;;;;;;;4.32;0.90;;;;;;;;;;4972705;28;20042;-86
2022/07/29 11:21:42;;;;;;;3.10;0.93;;;;;;;;;;5004220;28;20073;-85
2022/07/29 11:24:14;;;;;;;3.13;0.88;;;;;;;;;;4973429;28;20042;-82
2022/07/29 11:26:39;;;;;;;3.72;1.00;;;;;;;;;;4976203;28;20042;-85
2022/07/29 11:29:23;;;;;;;2.42;0.90;;;;;;;;;;4985302;28;20042;-82
2022/07/29 11:31:53;;;;;;;2.50;0.80;;;;;;;;;;5001965;28;20045;-82
2022/07/29 11:34:23;;;;;;;4.45;0.77;;;;;;;;;;4978926;28;20513;-84
2022/07/29 11:37:13;;;;;;;2.55;0.77;;;;;;;;;;5010096;28;20120;-82
2022/07/29 11:39:56;;;;;;;2.65;0.98;;;;;;;;;;5009846;28;20066;-85
2022/07/29 11:42:24;;;;;;;4.85;0.95;;;;;;;;;;4997323;28;20509;-84
2022/07/29 11:45:08;;;;;;;2.08;0.75;;;;;;;;;;4995202;28;20042;-85
2022/07/29 11:47:38;;;;;;;2.33;1.00;;;;;;;;;;4991115;28;20038;-84
2022/07/29 11:50:05;;;;;;;3.88;1.02;;;;;;;;;;4977817;28;20757;-82
2022/07/29 11:52:42;;;;;;;2.72;0.90;;;;;;;;;;4991228;28;20041;-81
2022/07/29 11:55:09;;;;;;;3.45;1.00;;;;;;;;;;4992958;28;20926;-81
2022/07/29 11:57:35;;;;;;;2.75;1.10;;;;;;;;;;4977942;28;20041;-81
2022/07/29 12:00:00;;;;;;;2.72;1.00;;;;;;;;;;4979898;28;20077;-81
2022/07/29 12:02:38;;;;;;;3.35;1.00;;;;;;;;;;4980114;28;20514;-83
2022/07/29 12:05:04;;;;;;;3.92;1.17;;;;;;;;;;4977395;28;20497;-82
2022/07/29 12:07:33;;;;;;;2.88;1.05;;;;;;;;;;4983341;28;20034;-81
2022/07/29 12:09:59;;;;;;;2.40;0.90;;;;;;;;;;4984998;28;20207;-80
2022/07/29 12:12:24;;;;;;;4.40;1.20;;;;;;;;;;4980224;28;20041;-81
2022/07/29 12:14:50;;;;;;;3.15;1.15;;;;;;;;;;4986065;28;20398;-82
2022/07/29 12:17:28;;;;;;;3.45;1.02;;;;;;;;;;4985046;28;20046;-85
2022/07/29 12:19:59;;;;;;;3.15;1.25;;;;;;;;;;4992418;28;20062;-84
2022/07/29 12:22:29;;;;;;;4.72;1.30;;;;;;;;;;4983153;28;20046;-86
2022/07/29 12:24:55;;;;;;;3.33;1.45;;;;;;;;;;4976916;28;20481;-83
2022/07/29 12:27:21;;;;;;;3.07;1.37;;;;;;;;;;4977577;28;20031;-83
2022/07/29 12:29:56;;;;;;;6.88;1.50;;;;;;;;;;4991922;28;20539;-84
2022/07/29 12:32:22;;;;;;;3.72;1.20;;;;;;;;;;4998112;28;20054;-85
2022/07/29 12:34:47;;;;;;;4.00;1.30;;;;;;;;;;4995227;28;20084;-84
2022/07/29 12:37:13;;;;;;;4.78;1.40;;;;;;;;;;4986720;28;20037;-85
2022/07/29 12:39:39;;;;;;;4.93;1.75;;;;;;;;;;4986759;28;20485;-84
2022/07/29 12:42:14;;;;;;;3.47;1.48;;;;;;;;;;4982379;28;20038;-82
2022/07/29 12:44:50;;;;;;;5.50;1.83;;;;;;;;;;4986588;28;20051;-84
2022/07/29 12:47:16;;;;;;;3.83;1.50;;;;;;;;;;4998099;28;20299;-84
2022/07/29 12:49:41;;;;;;;4.15;1.30;;;;;;;;;;4980198;28;20030;-84
2022/07/29 12:52:27;;;;;;;2.88;1.33;;;;;;;;;;4983612;28;20041;-83
2022/07/29 12:54:52;;;;;;;6.35;1.52;;;;;;;;;;4987536;28;20026;-83
2022/07/29 12:57:18;;;;;;;3.90;1.50;;;;;;;;;;4996224;28;20509;-84
2022/07/29 12:59:43;;;;;;;3.80;1.40;;;;;;;;;;4986684;28;20121;-84
2022/07/29 13:02:22;;;;;;;3.25;1.48;;;;;;;;;;4982661;28;20104;-85
2022/07/29 13:04:58;;;;;;;3.05;1.30;;;;;;;;;;4988502;28;20038;-83
2022/07/29 13:07:26;;;;;;;4.57;1.58;;;;;;;;;;5006015;28;20038;-83
2022/07/29 13:09:52;;;;;;;3.60;1.50;;;;;;;;;;4989973;28;20034;-79
2022/07/29 13:12:20;;;;;;;3.90;1.63;;;;;;;;;;4980936;28;20045;-79
2022/07/29 13:14:50;;;;;;;3.40;1.40;;;;;;;;;;4998053;28;20045;-79
2022/07/29 13:17:21;;;;;;;5.63;1.30;;;;;;;;;;4989385;28;20043;-80
2022/07/29 13:19:48;;;;;;;2.95;1.42;;;;;;;;;;4983185;28;20041;-79
2022/07/29 13:22:18;;;;;;;5.05;2.40;;;;;;;;;;4996969;28;20050;-80
2022/07/29 13:24:52;;;;;;;5.43;1.55;;;;;;;;;;5012108;28;20523;-79
2022/07/29 13:27:18;;;;;;;4.25;1.60;;;;;;;;;;5000299;28;20030;-80
2022/07/29 13:29:44;;;;;;;4.07;1.58;;;;;;;;;;4979414;28;20054;-80
2022/07/29 13:32:10;;;;;;;6.00;1.80;;;;;;;;;;4974666;28;20042;-80
2022/07/29 13:34:35;;;;;;;4.53;1.42;;;;;;;;;;4961309;28;20049;-79
2022/07/29 13:37:00;;;;;;;3.50;1.75;;;;;;;;;;5008854;28;20038;-79
2022/07/29 13:39:26;;;;;;;4.18;1.42;;;;;;;;;;5011265;28;20067;-79
2022/07/29 13:41:51;;;;;;;4.45;1.48;;;;;;;;;;4974731;28;20053;-79
2022/07/29 13:44:17;;;;;;;2.95;1.30;;;;;;;;;;4993692;28;20375;-79
2022/07/29 13:46:42;;;;;;;3.75;1.50;;;;;;;;;;4977590;28;20422;-79
2022/07/29 13:49:07;;;;;;;3.35;1.35;;;;;;;;;;4961606;28;20042;-78
2022/07/29 13:51:33;;;;;;;3.65;1.50;;;;;;;;;;4995104;28;20043;-79
2022/07/29 13:53:58;;;;;;;4.28;1.50;;;;;;;;;;4981328;28;20154;-79
2022/07/29 13:56:23;;;;;;;3.63;1.40;;;;;;;;;;5007785;28;20481;-79
2022/07/29 13:58:49;;;;;;;3.55;1.30;;;;;;;;;;4995744;28;20543;-78
2022/07/29 14:01:14;;;;;;;3.70;1.50;;;;;;;;;;4978227;28;20062;-79
2022/07/29 14:03:42;;;;;;;4.07;1.60;;;;;;;;;;5007195;28;20043;-79
2022/07/29 14:06:08;;;;;;;3.60;1.48;;;;;;;;;;4992816;28;20035;-78
2022/07/29 14:08:33;;;;;;;4.07;1.50;;;;;;;;;;4963501;28;20053;-78
2022/07/29 14:10:58;;;;;;;3.13;1.50;;;;;;;;;;4977826;28;20077;-78
2022/07/29 14:13:24;;;;;;;4.25;1.70;;;;;;;;;;4991313;28;20101;-78
2022/07/29 14:15:49;;;;;;;4.70;1.80;;;;;;;;;;4993619;28;20039;-77
2022/07/29 14:18:14;;;;;;;4.18;1.60;;;;;;;;;;4993382;28;20045;-77
2022/07/29 14:20:42;;;;;;;3.97;1.50;;;;;;;;;;4983482;28;20085;-78
2022/07/29 14:23:08;;;;;;;3.80;1.67;;;;;;;;;;4992555;28;20116;-78
2022/07/29 14:25:33;;;;;;;3.83;1.55;;;;;;;;;;5007763;28;20067;-78
2022/07/29 14:27:58;;;;;;;2.72;1.42;;;;;;;;;;5005827;28;20428;-78
2022/07/29 14:30:24;;;;;;;4.72;1.55;;;;;;;;;;5006646;28;20137;-78
2022/07/29 14:32:49;;;;;;;5.32;1.75;;;;;;;;;;4985507;28;20041;-79
2022/07/29 14:35:14;;;;;;;2.83;1.40;;;;;;;;;;4998345;28;20082;-78
2022/07/29 14:37:40;;;;;;;4.05;1.60;;;;;;;;;;4996280;28;20029;-78
2022/07/29 14:40:06;;;;;;;3.33;1.60;;;;;;;;;;4996178;28;20069;-79
2022/07/29 14:42:31;;;;;;;2.75;1.40;;;;;;;;;;4986380;28;20091;-78
2022/07/29 14:44:57;;;;;;;3.42;1.27;;;;;;;;;;4994222;28;20030;-78
2022/07/29 14:47:23;;;;;;;3.60;1.40;;;;;;;;;;4986781;28;20115;-79